sensor_id;sensor_type;location;lat;lon;timestamp;P1;durP1;ratioP1;P2;durP2;ratioP2
12976;SDS011;6553;48.412;9.514;2024-01-15T00:02:05;6.60;;;6.00;;
12976;SDS011;6553;48.412;9.514;2024-01-15T00:04:31;6.75;;;6.05;;
12976;SDS011;6553;48.412;9.514;2024-01-15T00:07:05;6.82;;;6.07;;
12976;SDS011;6553;48.412;9.514;2024-01-15T00:09:32;6.38;;;5.78;;
12976;SDS011;6553;48.412;9.514;2024-01-15T00:11:59;6.40;;;5.80;;
12976;SDS011;6553;48.412;9.514;2024-01-15T00:14:25;5.97;;;5.40;;
12976;SDS011;6553;48.412;9.514;2024-01-15T00:16:51;6.18;;;5.57;;
12976;SDS011;6553;48.412;9.514;2024-01-15T00:19:20;6.20;;;5.68;;
12976;SDS011;6553;48.412;9.514;2024-01-15T00:21:46;6.68;;;5.40;;
12976;SDS011;6553;48.412;9.514;2024-01-15T00:24:13;6.15;;;5.55;;
12976;SDS011;6553;48.412;9.514;2024-01-15T00:26:39;5.65;;;5.03;;
12976;SDS011;6553;48.412;9.514;2024-01-15T00:29:08;6.20;;;5.40;;
12976;SDS011;6553;48.412;9.514;2024-01-15T00:31:34;5.65;;;5.05;;
12976;SDS011;6553;48.412;9.514;2024-01-15T00:34:00;5.28;;;4.78;;
12976;SDS011;6553;48.412;9.514;2024-01-15T00:36:26;5.70;;;5.20;;
12976;SDS011;6553;48.412;9.514;2024-01-15T00:38:52;5.25;;;4.75;;
12976;SDS011;6553;48.412;9.514;2024-01-15T00:41:18;6.53;;;5.32;;
12976;SDS011;6553;48.412;9.514;2024-01-15T00:43:45;5.40;;;4.90;;
12976;SDS011;6553;48.412;9.514;2024-01-15T00:46:11;5.80;;;5.20;;
12976;SDS011;6553;48.412;9.514;2024-01-15T00:48:37;5.97;;;5.03;;
12976;SDS011;6553;48.412;9.514;2024-01-15T00:51:06;4.88;;;4.45;;
12976;SDS011;6553;48.412;9.514;2024-01-15T00:53:32;5.32;;;4.82;;
12976;SDS011;6553;48.412;9.514;2024-01-15T00:55:58;4.88;;;4.38;;
12976;SDS011;6553;48.412;9.514;2024-01-15T00:58:25;5.13;;;4.60;;
12976;SDS011;6553;48.412;9.514;2024-01-15T01:00:51;5.28;;;4.78;;
12976;SDS011;6553;48.412;9.514;2024-01-15T01:03:17;4.80;;;4.32;;
12976;SDS011;6553;48.412;9.514;2024-01-15T01:05:43;4.75;;;4.35;;
12976;SDS011;6553;48.412;9.514;2024-01-15T01:08:09;4.57;;;4.18;;
12976;SDS011;6553;48.412;9.514;2024-01-15T01:10:35;4.35;;;3.95;;
12976;SDS011;6553;48.412;9.514;2024-01-15T01:13:02;4.70;;;4.28;;
12976;SDS011;6553;48.412;9.514;2024-01-15T01:15:28;4.80;;;4.32;;
12976;SDS011;6553;48.412;9.514;2024-01-15T01:17:54;4.15;;;3.75;;
12976;SDS011;6553;48.412;9.514;2024-01-15T01:20:20;4.80;;;4.35;;
12976;SDS011;6553;48.412;9.514;2024-01-15T01:22:46;4.43;;;4.03;;
12976;SDS011;6553;48.412;9.514;2024-01-15T01:25:12;4.35;;;3.95;;
12976;SDS011;6553;48.412;9.514;2024-01-15T01:27:38;4.47;;;4.07;;
12976;SDS011;6553;48.412;9.514;2024-01-15T01:30:04;4.20;;;3.90;;
12976;SDS011;6553;48.412;9.514;2024-01-15T01:32:30;4.30;;;3.92;;
12976;SDS011;6553;48.412;9.514;2024-01-15T01:34:56;4.10;;;3.70;;
12976;SDS011;6553;48.412;9.514;2024-01-15T01:37:22;3.67;;;3.38;;
12976;SDS011;6553;48.412;9.514;2024-01-15T01:39:47;3.95;;;3.63;;
12976;SDS011;6553;48.412;9.514;2024-01-15T01:42:13;4.13;;;3.70;;
12976;SDS011;6553;48.412;9.514;2024-01-15T01:44:39;4.18;;;3.78;;
12976;SDS011;6553;48.412;9.514;2024-01-15T01:47:05;4.00;;;3.70;;
12976;SDS011;6553;48.412;9.514;2024-01-15T01:49:31;4.00;;;3.67;;
12976;SDS011;6553;48.412;9.514;2024-01-15T01:51:59;4.07;;;3.67;;
12976;SDS011;6553;48.412;9.514;2024-01-15T01:54:29;4.20;;;3.83;;
12976;SDS011;6553;48.412;9.514;2024-01-15T01:56:57;3.78;;;3.47;;
12976;SDS011;6553;48.412;9.514;2024-01-15T01:59:25;3.50;;;3.13;;
12976;SDS011;6553;48.412;9.514;2024-01-15T02:01:53;3.65;;;3.33;;
12976;SDS011;6553;48.412;9.514;2024-01-15T02:04:21;3.90;;;3.60;;
12976;SDS011;6553;48.412;9.514;2024-01-15T02:06:51;3.63;;;3.33;;
12976;SDS011;6553;48.412;9.514;2024-01-15T02:09:17;4.10;;;3.72;;
12976;SDS011;6553;48.412;9.514;2024-01-15T02:11:46;4.10;;;3.70;;
12976;SDS011;6553;48.412;9.514;2024-01-15T02:14:12;3.83;;;3.53;;
12976;SDS011;6553;48.412;9.514;2024-01-15T02:16:39;3.25;;;3.03;;
12976;SDS011;6553;48.412;9.514;2024-01-15T02:19:05;3.70;;;3.40;;
12976;SDS011;6553;48.412;9.514;2024-01-15T02:21:33;3.67;;;3.38;;
12976;SDS011;6553;48.412;9.514;2024-01-15T02:23:59;4.10;;;3.70;;
12976;SDS011;6553;48.412;9.514;2024-01-15T02:26:25;3.45;;;3.15;;
12976;SDS011;6553;48.412;9.514;2024-01-15T02:28:51;3.45;;;3.15;;
12976;SDS011;6553;48.412;9.514;2024-01-15T02:31:17;3.22;;;2.92;;
12976;SDS011;6553;48.412;9.514;2024-01-15T02:33:43;3.22;;;3.00;;
12976;SDS011;6553;48.412;9.514;2024-01-15T02:36:11;3.63;;;3.30;;
12976;SDS011;6553;48.412;9.514;2024-01-15T02:38:37;3.30;;;3.03;;
12976;SDS011;6553;48.412;9.514;2024-01-15T02:41:03;3.30;;;3.00;;
12976;SDS011;6553;48.412;9.514;2024-01-15T02:43:29;3.63;;;3.33;;
12976;SDS011;6553;48.412;9.514;2024-01-15T02:45:55;3.00;;;2.80;;
12976;SDS011;6553;48.412;9.514;2024-01-15T02:48:20;2.97;;;2.72;;
12976;SDS011;6553;48.412;9.514;2024-01-15T02:50:46;3.55;;;3.25;;
12976;SDS011;6553;48.412;9.514;2024-01-15T02:53:12;3.30;;;3.00;;
12976;SDS011;6553;48.412;9.514;2024-01-15T02:55:37;3.30;;;3.00;;
12976;SDS011;6553;48.412;9.514;2024-01-15T02:58:03;3.45;;;3.15;;
12976;SDS011;6553;48.412;9.514;2024-01-15T03:00:29;3.17;;;2.97;;
12976;SDS011;6553;48.412;9.514;2024-01-15T03:02:55;3.55;;;3.08;;
12976;SDS011;6553;48.412;9.514;2024-01-15T03:05:21;3.35;;;3.05;;
12976;SDS011;6553;48.412;9.514;2024-01-15T03:07:47;3.47;;;3.17;;
12976;SDS011;6553;48.412;9.514;2024-01-15T03:10:12;2.95;;;2.63;;
12976;SDS011;6553;48.412;9.514;2024-01-15T03:12:38;3.05;;;2.78;;
12976;SDS011;6553;48.412;9.514;2024-01-15T03:15:04;3.42;;;3.13;;
12976;SDS011;6553;48.412;9.514;2024-01-15T03:17:30;2.97;;;2.67;;
12976;SDS011;6553;48.412;9.514;2024-01-15T03:19:56;2.78;;;2.58;;
12976;SDS011;6553;48.412;9.514;2024-01-15T03:22:22;2.80;;;2.60;;
12976;SDS011;6553;48.412;9.514;2024-01-15T03:24:48;2.50;;;2.30;;
12976;SDS011;6553;48.412;9.514;2024-01-15T03:27:14;3.10;;;2.80;;
12976;SDS011;6553;48.412;9.514;2024-01-15T03:29:40;3.13;;;2.83;;
12976;SDS011;6553;48.412;9.514;2024-01-15T03:32:06;2.67;;;2.47;;
12976;SDS011;6553;48.412;9.514;2024-01-15T03:34:32;2.75;;;2.55;;
12976;SDS011;6553;48.412;9.514;2024-01-15T03:36:58;3.03;;;2.80;;
12976;SDS011;6553;48.412;9.514;2024-01-15T03:39:24;2.63;;;2.42;;
12976;SDS011;6553;48.412;9.514;2024-01-15T03:41:50;2.85;;;2.55;;
12976;SDS011;6553;48.412;9.514;2024-01-15T03:44:16;2.88;;;2.53;;
12976;SDS011;6553;48.412;9.514;2024-01-15T03:46:41;2.80;;;2.60;;
12976;SDS011;6553;48.412;9.514;2024-01-15T03:49:07;2.78;;;2.58;;
12976;SDS011;6553;48.412;9.514;2024-01-15T03:51:33;2.75;;;2.55;;
12976;SDS011;6553;48.412;9.514;2024-01-15T03:53:59;3.05;;;2.85;;
12976;SDS011;6553;48.412;9.514;2024-01-15T03:56:25;3.17;;;2.95;;
12976;SDS011;6553;48.412;9.514;2024-01-15T03:58:50;2.67;;;2.47;;
12976;SDS011;6553;48.412;9.514;2024-01-15T04:01:16;2.65;;;2.45;;
12976;SDS011;6553;48.412;9.514;2024-01-15T04:03:42;2.28;;;2.08;;
12976;SDS011;6553;48.412;9.514;2024-01-15T04:06:07;2.80;;;2.47;;
12976;SDS011;6553;48.412;9.514;2024-01-15T04:08:33;2.65;;;2.45;;
12976;SDS011;6553;48.412;9.514;2024-01-15T04:10:59;2.83;;;2.53;;
12976;SDS011;6553;48.412;9.514;2024-01-15T04:13:26;2.28;;;2.08;;
12976;SDS011;6553;48.412;9.514;2024-01-15T04:15:52;2.30;;;2.20;;
12976;SDS011;6553;48.412;9.514;2024-01-15T04:18:18;2.85;;;2.50;;
12976;SDS011;6553;48.412;9.514;2024-01-15T04:20:43;2.60;;;2.40;;
12976;SDS011;6553;48.412;9.514;2024-01-15T04:23:10;2.13;;;2.00;;
12976;SDS011;6553;48.412;9.514;2024-01-15T04:25:35;2.55;;;2.25;;
12976;SDS011;6553;48.412;9.514;2024-01-15T04:28:01;2.20;;;2.00;;
12976;SDS011;6553;48.412;9.514;2024-01-15T04:30:27;2.30;;;2.10;;
12976;SDS011;6553;48.412;9.514;2024-01-15T04:32:53;2.53;;;2.30;;
12976;SDS011;6553;48.412;9.514;2024-01-15T04:35:18;2.33;;;2.13;;
12976;SDS011;6553;48.412;9.514;2024-01-15T04:37:44;2.20;;;2.00;;
12976;SDS011;6553;48.412;9.514;2024-01-15T04:40:10;2.67;;;2.25;;
12976;SDS011;6553;48.412;9.514;2024-01-15T04:42:36;2.70;;;2.50;;
12976;SDS011;6553;48.412;9.514;2024-01-15T04:45:02;2.40;;;2.20;;
12976;SDS011;6553;48.412;9.514;2024-01-15T04:47:28;2.42;;;2.20;;
12976;SDS011;6553;48.412;9.514;2024-01-15T04:49:54;2.58;;;2.30;;
12976;SDS011;6553;48.412;9.514;2024-01-15T04:52:20;2.85;;;2.63;;
12976;SDS011;6553;48.412;9.514;2024-01-15T04:54:46;2.38;;;2.17;;
12976;SDS011;6553;48.412;9.514;2024-01-15T04:57:11;2.60;;;2.35;;
12976;SDS011;6553;48.412;9.514;2024-01-15T04:59:37;2.55;;;2.33;;
12976;SDS011;6553;48.412;9.514;2024-01-15T05:02:03;2.55;;;2.35;;
12976;SDS011;6553;48.412;9.514;2024-01-15T05:04:28;2.30;;;2.10;;
12976;SDS011;6553;48.412;9.514;2024-01-15T05:06:54;2.50;;;2.30;;
12976;SDS011;6553;48.412;9.514;2024-01-15T05:09:20;2.40;;;2.20;;
12976;SDS011;6553;48.412;9.514;2024-01-15T05:11:46;2.47;;;2.28;;
12976;SDS011;6553;48.412;9.514;2024-01-15T05:14:12;2.35;;;2.15;;
12976;SDS011;6553;48.412;9.514;2024-01-15T05:16:38;2.40;;;2.20;;
12976;SDS011;6553;48.412;9.514;2024-01-15T05:19:05;2.80;;;2.60;;
12976;SDS011;6553;48.412;9.514;2024-01-15T05:21:32;2.70;;;2.50;;
12976;SDS011;6553;48.412;9.514;2024-01-15T05:23:58;2.35;;;2.15;;
12976;SDS011;6553;48.412;9.514;2024-01-15T05:26:24;2.70;;;2.50;;
12976;SDS011;6553;48.412;9.514;2024-01-15T05:28:49;2.30;;;2.10;;
12976;SDS011;6553;48.412;9.514;2024-01-15T05:31:15;2.70;;;2.47;;
12976;SDS011;6553;48.412;9.514;2024-01-15T05:33:41;2.67;;;2.47;;
12976;SDS011;6553;48.412;9.514;2024-01-15T05:36:06;2.78;;;2.58;;
12976;SDS011;6553;48.412;9.514;2024-01-15T05:38:32;2.55;;;2.35;;
12976;SDS011;6553;48.412;9.514;2024-01-15T05:40:58;2.53;;;2.33;;
12976;SDS011;6553;48.412;9.514;2024-01-15T05:43:24;2.70;;;2.47;;
12976;SDS011;6553;48.412;9.514;2024-01-15T05:45:49;2.55;;;2.35;;
12976;SDS011;6553;48.412;9.514;2024-01-15T05:48:15;2.55;;;2.35;;
12976;SDS011;6553;48.412;9.514;2024-01-15T05:50:41;2.20;;;2.00;;
12976;SDS011;6553;48.412;9.514;2024-01-15T05:53:07;2.65;;;2.45;;
12976;SDS011;6553;48.412;9.514;2024-01-15T05:55:35;2.50;;;2.30;;
12976;SDS011;6553;48.412;9.514;2024-01-15T05:58:02;2.83;;;2.60;;
12976;SDS011;6553;48.412;9.514;2024-01-15T06:00:28;2.45;;;2.25;;
12976;SDS011;6553;48.412;9.514;2024-01-15T06:02:54;2.30;;;2.10;;
12976;SDS011;6553;48.412;9.514;2024-01-15T06:05:20;2.60;;;2.40;;
12976;SDS011;6553;48.412;9.514;2024-01-15T06:07:45;2.65;;;2.45;;
12976;SDS011;6553;48.412;9.514;2024-01-15T06:10:11;2.65;;;2.45;;
12976;SDS011;6553;48.412;9.514;2024-01-15T06:12:37;2.50;;;2.22;;
12976;SDS011;6553;48.412;9.514;2024-01-15T06:15:03;2.85;;;2.50;;
12976;SDS011;6553;48.412;9.514;2024-01-15T06:17:29;2.47;;;2.28;;
12976;SDS011;6553;48.412;9.514;2024-01-15T06:19:55;2.35;;;2.15;;
12976;SDS011;6553;48.412;9.514;2024-01-15T06:22:20;2.42;;;2.22;;
12976;SDS011;6553;48.412;9.514;2024-01-15T06:24:46;2.40;;;2.05;;
12976;SDS011;6553;48.412;9.514;2024-01-15T06:27:12;2.33;;;2.13;;
12976;SDS011;6553;48.412;9.514;2024-01-15T06:29:38;2.20;;;2.05;;
12976;SDS011;6553;48.412;9.514;2024-01-15T06:32:04;2.40;;;2.20;;
12976;SDS011;6553;48.412;9.514;2024-01-15T06:34:30;2.45;;;2.25;;
12976;SDS011;6553;48.412;9.514;2024-01-15T06:36:55;2.30;;;2.10;;
12976;SDS011;6553;48.412;9.514;2024-01-15T06:39:21;2.45;;;2.25;;
12976;SDS011;6553;48.412;9.514;2024-01-15T06:41:47;2.03;;;1.83;;
12976;SDS011;6553;48.412;9.514;2024-01-15T06:44:13;2.50;;;2.20;;
12976;SDS011;6553;48.412;9.514;2024-01-15T06:46:45;2.25;;;2.05;;
12976;SDS011;6553;48.412;9.514;2024-01-15T06:49:11;2.63;;;2.40;;
12976;SDS011;6553;48.412;9.514;2024-01-15T06:51:37;2.50;;;2.30;;
12976;SDS011;6553;48.412;9.514;2024-01-15T06:54:03;2.47;;;2.25;;
12976;SDS011;6553;48.412;9.514;2024-01-15T06:56:29;2.38;;;2.17;;
12976;SDS011;6553;48.412;9.514;2024-01-15T06:58:56;2.78;;;2.22;;
12976;SDS011;6553;48.412;9.514;2024-01-15T07:01:22;2.88;;;2.47;;
12976;SDS011;6553;48.412;9.514;2024-01-15T07:03:48;2.40;;;2.20;;
12976;SDS011;6553;48.412;9.514;2024-01-15T07:06:14;2.25;;;1.90;;
12976;SDS011;6553;48.412;9.514;2024-01-15T07:08:40;2.53;;;2.30;;
12976;SDS011;6553;48.412;9.514;2024-01-15T07:11:06;2.70;;;2.50;;
12976;SDS011;6553;48.412;9.514;2024-01-15T07:13:33;2.60;;;2.40;;
12976;SDS011;6553;48.412;9.514;2024-01-15T07:16:01;2.65;;;2.45;;
12976;SDS011;6553;48.412;9.514;2024-01-15T07:18:26;2.42;;;2.22;;
12976;SDS011;6553;48.412;9.514;2024-01-15T07:20:52;3.13;;;2.65;;
12976;SDS011;6553;48.412;9.514;2024-01-15T07:23:18;2.95;;;2.40;;
12976;SDS011;6553;48.412;9.514;2024-01-15T07:25:44;2.58;;;2.22;;
12976;SDS011;6553;48.412;9.514;2024-01-15T07:28:09;3.17;;;2.00;;
12976;SDS011;6553;48.412;9.514;2024-01-15T07:30:35;2.13;;;1.92;;
12976;SDS011;6553;48.412;9.514;2024-01-15T07:33:03;2.88;;;2.50;;
12976;SDS011;6553;48.412;9.514;2024-01-15T07:35:30;2.13;;;1.92;;
12976;SDS011;6553;48.412;9.514;2024-01-15T07:37:56;2.78;;;2.40;;
12976;SDS011;6553;48.412;9.514;2024-01-15T07:40:22;2.50;;;2.30;;
12976;SDS011;6553;48.412;9.514;2024-01-15T07:42:47;2.30;;;2.00;;
12976;SDS011;6553;48.412;9.514;2024-01-15T07:45:13;2.70;;;1.92;;
12976;SDS011;6553;48.412;9.514;2024-01-15T07:47:39;2.30;;;2.10;;
12976;SDS011;6553;48.412;9.514;2024-01-15T07:50:05;2.47;;;2.28;;
12976;SDS011;6553;48.412;9.514;2024-01-15T07:52:31;2.17;;;1.98;;
12976;SDS011;6553;48.412;9.514;2024-01-15T07:54:56;3.10;;;2.47;;
12976;SDS011;6553;48.412;9.514;2024-01-15T07:57:24;2.88;;;2.20;;
12976;SDS011;6553;48.412;9.514;2024-01-15T07:59:51;2.30;;;2.10;;
12976;SDS011;6553;48.412;9.514;2024-01-15T08:02:17;2.33;;;2.00;;
12976;SDS011;6553;48.412;9.514;2024-01-15T08:04:42;2.38;;;2.17;;
12976;SDS011;6553;48.412;9.514;2024-01-15T08:07:09;2.75;;;2.42;;
12976;SDS011;6553;48.412;9.514;2024-01-15T08:09:35;2.20;;;1.80;;
12976;SDS011;6553;48.412;9.514;2024-01-15T08:12:00;2.85;;;2.25;;
12976;SDS011;6553;48.412;9.514;2024-01-15T08:14:26;2.20;;;2.00;;
12976;SDS011;6553;48.412;9.514;2024-01-15T08:16:52;1.85;;;1.75;;
12976;SDS011;6553;48.412;9.514;2024-01-15T08:19:18;1.85;;;1.75;;
12976;SDS011;6553;48.412;9.514;2024-01-15T08:21:45;2.38;;;2.17;;
12976;SDS011;6553;48.412;9.514;2024-01-15T08:24:11;2.10;;;1.88;;
12976;SDS011;6553;48.412;9.514;2024-01-15T08:26:37;2.22;;;2.03;;
12976;SDS011;6553;48.412;9.514;2024-01-15T08:29:02;2.00;;;1.80;;
12976;SDS011;6553;48.412;9.514;2024-01-15T08:31:28;2.10;;;1.90;;
12976;SDS011;6553;48.412;9.514;2024-01-15T08:33:54;1.67;;;1.58;;
12976;SDS011;6553;48.412;9.514;2024-01-15T08:36:21;2.15;;;1.95;;
12976;SDS011;6553;48.412;9.514;2024-01-15T08:38:47;1.88;;;1.77;;
12976;SDS011;6553;48.412;9.514;2024-01-15T08:41:13;2.08;;;1.75;;
12976;SDS011;6553;48.412;9.514;2024-01-15T08:43:39;1.83;;;1.70;;
12976;SDS011;6553;48.412;9.514;2024-01-15T08:46:04;2.25;;;2.00;;
12976;SDS011;6553;48.412;9.514;2024-01-15T08:48:30;2.20;;;1.73;;
12976;SDS011;6553;48.412;9.514;2024-01-15T08:50:56;2.10;;;1.90;;
12976;SDS011;6553;48.412;9.514;2024-01-15T08:53:22;1.70;;;1.52;;
12976;SDS011;6553;48.412;9.514;2024-01-15T08:55:48;2.17;;;1.98;;
12976;SDS011;6553;48.412;9.514;2024-01-15T08:58:14;2.03;;;1.88;;
12976;SDS011;6553;48.412;9.514;2024-01-15T09:00:40;1.90;;;1.80;;
12976;SDS011;6553;48.412;9.514;2024-01-15T09:03:06;2.42;;;2.13;;
12976;SDS011;6553;48.412;9.514;2024-01-15T09:05:33;2.30;;;2.10;;
12976;SDS011;6553;48.412;9.514;2024-01-15T09:08:00;1.90;;;1.80;;
12976;SDS011;6553;48.412;9.514;2024-01-15T09:10:25;2.05;;;1.85;;
12976;SDS011;6553;48.412;9.514;2024-01-15T09:12:51;1.63;;;1.52;;
12976;SDS011;6553;48.412;9.514;2024-01-15T09:15:17;1.60;;;1.50;;
12976;SDS011;6553;48.412;9.514;2024-01-15T09:17:49;2.20;;;1.80;;
12976;SDS011;6553;48.412;9.514;2024-01-15T09:20:15;2.08;;;1.88;;
12976;SDS011;6553;48.412;9.514;2024-01-15T09:22:41;2.42;;;1.58;;
12976;SDS011;6553;48.412;9.514;2024-01-15T09:25:08;1.88;;;1.77;;
12976;SDS011;6553;48.412;9.514;2024-01-15T09:27:37;1.60;;;1.50;;
12976;SDS011;6553;48.412;9.514;2024-01-15T09:30:03;1.73;;;1.50;;
12976;SDS011;6553;48.412;9.514;2024-01-15T09:32:30;1.92;;;1.60;;
12976;SDS011;6553;48.412;9.514;2024-01-15T09:34:56;2.08;;;1.80;;
12976;SDS011;6553;48.412;9.514;2024-01-15T09:37:22;1.75;;;1.58;;
12976;SDS011;6553;48.412;9.514;2024-01-15T09:39:48;1.67;;;1.58;;
12976;SDS011;6553;48.412;9.514;2024-01-15T09:42:15;1.67;;;1.58;;
12976;SDS011;6553;48.412;9.514;2024-01-15T09:44:42;1.63;;;1.52;;
12976;SDS011;6553;48.412;9.514;2024-01-15T09:47:08;1.52;;;1.42;;
12976;SDS011;6553;48.412;9.514;2024-01-15T09:49:35;1.73;;;1.63;;
12976;SDS011;6553;48.412;9.514;2024-01-15T09:52:01;1.90;;;1.50;;
12976;SDS011;6553;48.412;9.514;2024-01-15T09:54:28;2.15;;;1.52;;
12976;SDS011;6553;48.412;9.514;2024-01-15T09:56:54;1.67;;;1.52;;
12976;SDS011;6553;48.412;9.514;2024-01-15T09:59:20;1.55;;;1.45;;
12976;SDS011;6553;48.412;9.514;2024-01-15T10:01:50;1.33;;;1.23;;
12976;SDS011;6553;48.412;9.514;2024-01-15T10:04:17;1.73;;;1.60;;
12976;SDS011;6553;48.412;9.514;2024-01-15T10:06:44;1.65;;;1.50;;
12976;SDS011;6553;48.412;9.514;2024-01-15T10:09:14;1.33;;;1.20;;
12976;SDS011;6553;48.412;9.514;2024-01-15T10:11:41;1.55;;;1.45;;
12976;SDS011;6553;48.412;9.514;2024-01-15T10:14:11;1.58;;;1.40;;
12976;SDS011;6553;48.412;9.514;2024-01-15T10:16:41;1.65;;;1.45;;
12976;SDS011;6553;48.412;9.514;2024-01-15T10:19:08;1.48;;;1.38;;
12976;SDS011;6553;48.412;9.514;2024-01-15T10:21:34;1.92;;;1.38;;
12976;SDS011;6553;48.412;9.514;2024-01-15T10:24:02;1.80;;;1.48;;
12976;SDS011;6553;48.412;9.514;2024-01-15T10:26:30;1.27;;;1.08;;
12976;SDS011;6553;48.412;9.514;2024-01-15T10:29:00;1.50;;;1.38;;
12976;SDS011;6553;48.412;9.514;2024-01-15T10:31:26;2.53;;;1.42;;
12976;SDS011;6553;48.412;9.514;2024-01-15T10:33:53;1.40;;;1.30;;
12976;SDS011;6553;48.412;9.514;2024-01-15T10:36:19;1.38;;;1.27;;
12976;SDS011;6553;48.412;9.514;2024-01-15T10:38:46;1.52;;;1.40;;
12976;SDS011;6553;48.412;9.514;2024-01-15T10:41:12;1.50;;;1.30;;
12976;SDS011;6553;48.412;9.514;2024-01-15T10:43:38;1.40;;;1.30;;
12976;SDS011;6553;48.412;9.514;2024-01-15T10:46:06;1.30;;;1.20;;
12976;SDS011;6553;48.412;9.514;2024-01-15T10:48:33;1.40;;;1.30;;
12976;SDS011;6553;48.412;9.514;2024-01-15T10:51:01;1.30;;;1.20;;
12976;SDS011;6553;48.412;9.514;2024-01-15T10:53:36;2.17;;;1.25;;
12976;SDS011;6553;48.412;9.514;2024-01-15T10:56:05;1.23;;;1.08;;
12976;SDS011;6553;48.412;9.514;2024-01-15T10:58:32;1.40;;;1.30;;
12976;SDS011;6553;48.412;9.514;2024-01-15T11:01:00;1.33;;;1.00;;
12976;SDS011;6553;48.412;9.514;2024-01-15T11:03:27;1.40;;;1.25;;
12976;SDS011;6553;48.412;9.514;2024-01-15T11:05:54;1.20;;;1.10;;
12976;SDS011;6553;48.412;9.514;2024-01-15T11:08:19;1.17;;;1.02;;
12976;SDS011;6553;48.412;9.514;2024-01-15T11:10:52;1.10;;;1.00;;
12976;SDS011;6553;48.412;9.514;2024-01-15T11:13:20;2.22;;;1.17;;
12976;SDS011;6553;48.412;9.514;2024-01-15T11:16:06;1.50;;;1.40;;
12976;SDS011;6553;48.412;9.514;2024-01-15T11:23:45;1.02;;;1.02;;
12976;SDS011;6553;48.412;9.514;2024-01-15T11:29:08;1.38;;;1.27;;
12976;SDS011;6553;48.412;9.514;2024-01-15T11:31:56;1.10;;;1.10;;
12976;SDS011;6553;48.412;9.514;2024-01-15T11:34:51;1.25;;;1.15;;
12976;SDS011;6553;48.412;9.514;2024-01-15T11:37:22;1.40;;;1.02;;
12976;SDS011;6553;48.412;9.514;2024-01-15T11:39:53;1.15;;;1.05;;
12976;SDS011;6553;48.412;9.514;2024-01-15T11:42:29;1.20;;;1.10;;
12976;SDS011;6553;48.412;9.514;2024-01-15T11:44:55;1.40;;;1.30;;
12976;SDS011;6553;48.412;9.514;2024-01-15T11:50:47;1.27;;;1.17;;
12976;SDS011;6553;48.412;9.514;2024-01-15T11:53:16;1.20;;;1.10;;
12976;SDS011;6553;48.412;9.514;2024-01-15T11:56:01;1.27;;;1.10;;
12976;SDS011;6553;48.412;9.514;2024-01-15T11:58:31;1.08;;;1.08;;
12976;SDS011;6553;48.412;9.514;2024-01-15T12:00:57;1.25;;;1.13;;
12976;SDS011;6553;48.412;9.514;2024-01-15T12:03:23;1.38;;;1.27;;
12976;SDS011;6553;48.412;9.514;2024-01-15T12:05:50;1.48;;;1.38;;
12976;SDS011;6553;48.412;9.514;2024-01-15T12:08:23;1.20;;;1.10;;
12976;SDS011;6553;48.412;9.514;2024-01-15T12:10:51;1.05;;;0.95;;
12976;SDS011;6553;48.412;9.514;2024-01-15T12:13:17;1.20;;;0.98;;
12976;SDS011;6553;48.412;9.514;2024-01-15T12:15:43;1.35;;;1.02;;
12976;SDS011;6553;48.412;9.514;2024-01-15T12:18:12;1.17;;;1.08;;
12976;SDS011;6553;48.412;9.514;2024-01-15T12:20:40;1.23;;;1.13;;
12976;SDS011;6553;48.412;9.514;2024-01-15T12:23:07;1.55;;;0.90;;
12976;SDS011;6553;48.412;9.514;2024-01-15T12:25:36;0.95;;;0.95;;
12976;SDS011;6553;48.412;9.514;2024-01-15T12:28:03;1.00;;;1.00;;
12976;SDS011;6553;48.412;9.514;2024-01-15T12:30:30;1.50;;;1.40;;
12976;SDS011;6553;48.412;9.514;2024-01-15T12:33:02;1.15;;;1.05;;
12976;SDS011;6553;48.412;9.514;2024-01-15T12:35:29;1.00;;;1.00;;
12976;SDS011;6553;48.412;9.514;2024-01-15T12:37:55;1.08;;;1.00;;
12976;SDS011;6553;48.412;9.514;2024-01-15T12:40:22;1.40;;;1.30;;
12976;SDS011;6553;48.412;9.514;2024-01-15T12:42:49;1.40;;;0.98;;
12976;SDS011;6553;48.412;9.514;2024-01-15T12:45:15;1.15;;;1.05;;
12976;SDS011;6553;48.412;9.514;2024-01-15T12:47:41;1.67;;;1.00;;
12976;SDS011;6553;48.412;9.514;2024-01-15T12:50:08;1.70;;;0.98;;
12976;SDS011;6553;48.412;9.514;2024-01-15T12:52:36;1.00;;;1.00;;
12976;SDS011;6553;48.412;9.514;2024-01-15T12:55:06;1.20;;;1.10;;
12976;SDS011;6553;48.412;9.514;2024-01-15T12:57:34;1.58;;;1.00;;
12976;SDS011;6553;48.412;9.514;2024-01-15T13:00:02;1.15;;;1.05;;
12976;SDS011;6553;48.412;9.514;2024-01-15T13:02:32;1.05;;;1.05;;
12976;SDS011;6553;48.412;9.514;2024-01-15T13:04:59;1.10;;;1.08;;
12976;SDS011;6553;48.412;9.514;2024-01-15T13:07:26;1.60;;;0.85;;
12976;SDS011;6553;48.412;9.514;2024-01-15T13:09:52;1.02;;;1.02;;
12976;SDS011;6553;48.412;9.514;2024-01-15T13:12:19;1.25;;;1.20;;
12976;SDS011;6553;48.412;9.514;2024-01-15T13:14:46;1.15;;;1.08;;
12976;SDS011;6553;48.412;9.514;2024-01-15T13:17:14;1.17;;;1.08;;
12976;SDS011;6553;48.412;9.514;2024-01-15T13:19:40;1.23;;;1.10;;
12976;SDS011;6553;48.412;9.514;2024-01-15T13:22:06;1.30;;;1.20;;
12976;SDS011;6553;48.412;9.514;2024-01-15T13:24:34;1.38;;;1.27;;
12976;SDS011;6553;48.412;9.514;2024-01-15T13:27:01;1.20;;;1.10;;
12976;SDS011;6553;48.412;9.514;2024-01-15T13:29:29;1.40;;;1.30;;
12976;SDS011;6553;48.412;9.514;2024-01-15T13:31:56;1.27;;;1.17;;
12976;SDS011;6553;48.412;9.514;2024-01-15T13:34:23;1.20;;;1.10;;
12976;SDS011;6553;48.412;9.514;2024-01-15T13:36:49;1.58;;;1.00;;
12976;SDS011;6553;48.412;9.514;2024-01-15T13:39:15;1.15;;;1.00;;
12976;SDS011;6553;48.412;9.514;2024-01-15T13:41:45;1.33;;;1.23;;
12976;SDS011;6553;48.412;9.514;2024-01-15T13:44:11;4.03;;;1.35;;
12976;SDS011;6553;48.412;9.514;2024-01-15T13:46:37;1.95;;;1.13;;
12976;SDS011;6553;48.412;9.514;2024-01-15T13:49:03;1.27;;;1.17;;
12976;SDS011;6553;48.412;9.514;2024-01-15T13:51:31;1.42;;;1.30;;
12976;SDS011;6553;48.412;9.514;2024-01-15T13:53:57;1.40;;;1.30;;
12976;SDS011;6553;48.412;9.514;2024-01-15T13:56:23;1.88;;;1.10;;
12976;SDS011;6553;48.412;9.514;2024-01-15T13:58:49;0.90;;;0.85;;
12976;SDS011;6553;48.412;9.514;2024-01-15T14:01:15;1.30;;;1.20;;
12976;SDS011;6553;48.412;9.514;2024-01-15T14:03:42;1.38;;;1.23;;
12976;SDS011;6553;48.412;9.514;2024-01-15T14:06:09;1.30;;;1.20;;
12976;SDS011;6553;48.412;9.514;2024-01-15T14:08:36;1.10;;;1.00;;
12976;SDS011;6553;48.412;9.514;2024-01-15T14:11:02;2.60;;;1.33;;
12976;SDS011;6553;48.412;9.514;2024-01-15T14:13:31;1.58;;;1.25;;
12976;SDS011;6553;48.412;9.514;2024-01-15T14:15:58;1.42;;;1.20;;
12976;SDS011;6553;48.412;9.514;2024-01-15T14:18:25;1.75;;;1.35;;
12976;SDS011;6553;48.412;9.514;2024-01-15T14:20:51;2.35;;;1.63;;
12976;SDS011;6553;48.412;9.514;2024-01-15T14:23:19;1.88;;;1.40;;
12976;SDS011;6553;48.412;9.514;2024-01-15T14:26:07;2.33;;;1.30;;
12976;SDS011;6553;48.412;9.514;2024-01-15T14:28:33;2.38;;;1.23;;
12976;SDS011;6553;48.412;9.514;2024-01-15T14:30:59;1.55;;;1.33;;
12976;SDS011;6553;48.412;9.514;2024-01-15T14:33:25;1.30;;;1.10;;
12976;SDS011;6553;48.412;9.514;2024-01-15T14:35:52;1.95;;;1.52;;
12976;SDS011;6553;48.412;9.514;2024-01-15T14:38:18;2.60;;;1.42;;
12976;SDS011;6553;48.412;9.514;2024-01-15T14:40:44;1.83;;;1.40;;
12976;SDS011;6553;48.412;9.514;2024-01-15T14:43:10;3.50;;;1.35;;
12976;SDS011;6553;48.412;9.514;2024-01-15T14:45:36;1.70;;;1.52;;
12976;SDS011;6553;48.412;9.514;2024-01-15T14:48:02;1.65;;;1.20;;
12976;SDS011;6553;48.412;9.514;2024-01-15T14:50:28;2.55;;;1.38;;
12976;SDS011;6553;48.412;9.514;2024-01-15T14:52:53;6.95;;;1.42;;
12976;SDS011;6553;48.412;9.514;2024-01-15T14:55:19;1.85;;;1.48;;
12976;SDS011;6553;48.412;9.514;2024-01-15T14:57:48;1.50;;;1.40;;
12976;SDS011;6553;48.412;9.514;2024-01-15T15:00:15;2.17;;;1.17;;
12976;SDS011;6553;48.412;9.514;2024-01-15T15:02:42;1.60;;;1.20;;
12976;SDS011;6553;48.412;9.514;2024-01-15T15:05:08;1.45;;;1.20;;
12976;SDS011;6553;48.412;9.514;2024-01-15T15:07:35;1.25;;;1.13;;
12976;SDS011;6553;48.412;9.514;2024-01-15T15:10:02;1.30;;;1.20;;